createdAt,value
2024-03-11T00:00:14.454Z,13.82
2024-03-11T00:02:41.118Z,14.27
2024-03-11T00:05:08.265Z,14.93
2024-03-11T00:07:38.379Z,14.52
2024-03-11T00:10:12.774Z,13.32
2024-03-11T00:12:50.296Z,13.77
2024-03-11T00:15:17.053Z,13.85
2024-03-11T00:17:43.733Z,14.02
2024-03-11T00:20:11.054Z,13.25
2024-03-11T00:22:38.134Z,14.20
2024-03-11T00:25:07.995Z,14.27
2024-03-11T00:27:40.212Z,14.13
2024-03-11T00:30:12.568Z,15.45
2024-03-11T00:32:46.229Z,13.93
2024-03-11T00:35:14.979Z,14.00
2024-03-11T00:37:42.386Z,14.23
2024-03-11T00:40:09.318Z,14.10
2024-03-11T00:42:36.047Z,15.15
2024-03-11T00:45:03.584Z,14.13
2024-03-11T00:47:32.611Z,14.23
2024-03-11T00:49:59.128Z,15.52
2024-03-11T00:52:26.215Z,14.23
2024-03-11T00:54:53.358Z,14.60
2024-03-11T00:57:19.846Z,13.02
2024-03-11T00:59:46.790Z,13.57
2024-03-11T01:02:13.662Z,14.18
2024-03-11T01:04:43.132Z,15.13
2024-03-11T01:07:19.908Z,14.13
2024-03-11T01:09:52.721Z,14.15
2024-03-11T01:12:19.206Z,14.00
2024-03-11T01:14:45.668Z,14.90
2024-03-11T01:17:12.459Z,14.00
2024-03-11T01:19:39.304Z,15.20
2024-03-11T01:22:06.471Z,15.02
2024-03-11T01:24:33.125Z,14.45
2024-03-11T01:27:06.437Z,15.75
2024-03-11T01:29:32.874Z,13.85
2024-03-11T01:31:59.266Z,14.27
2024-03-11T01:34:25.681Z,14.82
2024-03-11T01:36:52.147Z,14.88
2024-03-11T01:39:26.565Z,14.70
2024-03-11T01:41:56.306Z,15.80
2024-03-11T01:44:25.958Z,15.65
2024-03-11T01:46:54.909Z,14.35
2024-03-11T01:49:22.304Z,14.50
2024-03-11T01:51:49.103Z,13.80
2024-03-11T01:54:15.547Z,15.40
2024-03-11T01:56:42.153Z,14.70
2024-03-11T01:59:11.200Z,15.38
2024-03-11T02:01:39.422Z,15.35
2024-03-11T02:04:05.882Z,14.77
2024-03-11T02:06:32.563Z,15.63
2024-03-11T02:08:58.960Z,14.90
2024-03-11T02:11:25.549Z,15.13
2024-03-11T02:13:54.128Z,15.65
2024-03-11T02:16:20.624Z,14.48
2024-03-11T02:18:47.120Z,15.45
2024-03-11T02:21:13.584Z,16.40
2024-03-11T02:23:40.011Z,15.60
2024-03-11T02:26:07.573Z,16.00
2024-03-11T02:28:34.131Z,16.50
2024-03-11T02:31:00.576Z,16.05
2024-03-11T02:33:27.425Z,15.45
2024-03-11T02:35:53.906Z,16.20
2024-03-11T02:38:20.358Z,16.40
2024-03-11T02:40:47.017Z,16.20
2024-03-11T02:43:13.610Z,16.02
2024-03-11T02:45:40.897Z,16.33
2024-03-11T02:48:08.564Z,16.73
2024-03-11T02:50:36.142Z,16.70
2024-03-11T02:53:02.625Z,16.25
2024-03-11T02:55:30.352Z,16.67
2024-03-11T02:57:56.742Z,16.52
2024-03-11T03:00:23.791Z,16.40
2024-03-11T03:02:53.191Z,16.30
2024-03-11T03:05:20.172Z,17.30
2024-03-11T03:07:47.534Z,17.33
2024-03-11T03:10:14.002Z,16.27
2024-03-11T03:12:40.463Z,17.58
2024-03-11T03:15:07.531Z,16.83
2024-03-11T03:17:34.664Z,17.35
2024-03-11T03:20:01.279Z,16.42
2024-03-11T03:22:28.980Z,18.13
2024-03-11T03:24:55.466Z,16.40
2024-03-11T03:27:21.887Z,18.02
2024-03-11T03:29:49.967Z,17.48
2024-03-11T03:32:20.420Z,15.90
2024-03-11T03:34:46.882Z,17.77
2024-03-11T03:37:14.975Z,16.90
2024-03-11T03:39:42.617Z,16.17
2024-03-11T03:42:09.093Z,17.83
2024-03-11T03:44:37.440Z,18.70
2024-03-11T03:47:03.934Z,17.70
2024-03-11T03:49:30.341Z,17.77
2024-03-11T03:51:56.759Z,16.77
2024-03-11T03:54:23.190Z,17.52
2024-03-11T03:56:50.345Z,17.73
2024-03-11T03:59:17.272Z,17.88
2024-03-11T04:01:43.765Z,17.67
2024-03-11T04:04:10.664Z,18.27
2024-03-11T04:06:37.082Z,18.73
2024-03-11T04:09:03.623Z,17.20
2024-03-11T04:11:30.216Z,18.02
2024-03-11T04:13:56.677Z,17.60
2024-03-11T04:16:23.080Z,17.55
2024-03-11T04:18:50.061Z,18.40
2024-03-11T04:21:17.161Z,18.85
2024-03-11T04:23:45.487Z,17.90
2024-03-11T04:26:12.458Z,17.73
2024-03-11T04:28:38.945Z,18.27
2024-03-11T04:31:06.036Z,18.65
2024-03-11T04:33:32.590Z,17.70
2024-03-11T04:35:59.762Z,18.13
2024-03-11T04:38:27.564Z,18.00
2024-03-11T04:40:54.167Z,18.55
2024-03-11T04:43:21.812Z,17.77
2024-03-11T04:45:48.258Z,18.20
2024-03-11T04:48:14.850Z,18.45
2024-03-11T04:50:43.964Z,18.02
2024-03-11T04:53:11.797Z,19.35
2024-03-11T04:55:38.631Z,17.90
2024-03-11T04:58:05.622Z,19.15
2024-03-11T05:00:33.088Z,18.73
2024-03-11T05:03:01.326Z,18.40
2024-03-11T05:05:32.492Z,18.70
2024-03-11T05:07:59.047Z,17.70
2024-03-11T05:10:25.517Z,18.60
2024-03-11T05:12:52.030Z,18.65
2024-03-11T05:15:18.806Z,18.30
2024-03-11T05:17:46.039Z,18.45
2024-03-11T05:20:15.901Z,18.65
2024-03-11T05:22:43.786Z,18.83
2024-03-11T05:25:13.425Z,17.42
2024-03-11T05:27:40.499Z,19.60
2024-03-11T05:30:08.702Z,18.90
2024-03-11T05:32:35.492Z,19.55
2024-03-11T05:35:02.400Z,19.20
2024-03-11T05:37:29.509Z,19.17
2024-03-11T05:39:56.336Z,19.52
2024-03-11T05:42:23.446Z,19.65
2024-03-11T05:44:50.768Z,20.13
2024-03-11T05:47:17.553Z,19.60
2024-03-11T05:49:44.924Z,18.95
2024-03-11T05:52:11.636Z,19.17
2024-03-11T05:54:50.883Z,18.85
2024-03-11T05:57:27.724Z,20.05
2024-03-11T05:59:54.456Z,19.55
2024-03-11T06:02:21.683Z,19.98
2024-03-11T06:04:48.697Z,19.48
2024-03-11T06:07:24.774Z,20.95
2024-03-11T06:09:52.346Z,18.58
2024-03-11T06:12:21.249Z,20.60
2024-03-11T06:14:48.457Z,19.48
2024-03-11T06:17:17.204Z,20.52
2024-03-11T06:19:45.305Z,19.27
2024-03-11T06:22:12.734Z,20.92
2024-03-11T06:24:39.562Z,20.20
2024-03-11T06:27:06.193Z,19.17
2024-03-11T06:29:33.395Z,21.48
2024-03-11T06:32:00.100Z,20.73
2024-03-11T06:34:28.522Z,19.98
2024-03-11T06:36:55.557Z,19.98
2024-03-11T06:39:22.038Z,19.13
2024-03-11T06:41:48.494Z,18.63
2024-03-11T06:44:20.400Z,17.73
2024-03-11T06:46:49.032Z,20.13
2024-03-11T06:49:15.813Z,19.02
2024-03-11T06:51:42.217Z,21.67
2024-03-11T06:54:08.748Z,20.30
2024-03-11T06:56:35.321Z,20.58
2024-03-11T06:59:01.960Z,19.40
2024-03-11T07:01:31.509Z,21.20
2024-03-11T07:03:58.044Z,20.80
2024-03-11T07:06:25.202Z,20.73
2024-03-11T07:08:52.189Z,21.25
2024-03-11T07:11:18.730Z,21.77
2024-03-11T07:13:45.398Z,19.77
2024-03-11T07:16:13.359Z,19.20
2024-03-11T07:18:43.126Z,20.15
2024-03-11T07:21:12.778Z,19.33
2024-03-11T07:23:39.190Z,17.73
2024-03-11T07:26:11.731Z,20.17
2024-03-11T07:28:38.123Z,20.45
2024-03-11T07:31:04.754Z,19.92
2024-03-11T07:33:31.765Z,19.90
2024-03-11T07:35:58.797Z,20.25
2024-03-11T07:38:27.005Z,19.30
2024-03-11T07:40:53.509Z,17.65
2024-03-11T07:43:19.945Z,18.83
2024-03-11T07:45:46.612Z,17.98
2024-03-11T07:48:15.740Z,18.30
2024-03-11T07:50:42.952Z,17.50
2024-03-11T07:53:09.990Z,17.40
2024-03-11T07:55:36.805Z,18.50
2024-03-11T07:58:03.974Z,17.75
2024-03-11T08:00:30.862Z,17.48
2024-03-11T08:03:01.785Z,18.23
2024-03-11T08:05:28.688Z,17.10
2024-03-11T08:07:55.342Z,18.42
2024-03-11T08:10:22.061Z,18.27
2024-03-11T08:12:49.301Z,17.42
2024-03-11T08:15:16.814Z,16.35
2024-03-11T08:17:44.802Z,16.90
2024-03-11T08:20:18.761Z,17.15
2024-03-11T08:22:46.727Z,17.02
2024-03-11T08:25:14.408Z,17.02
2024-03-11T08:27:41.349Z,16.50
2024-03-11T08:30:10.907Z,18.10
2024-03-11T08:32:38.100Z,16.52
2024-03-11T08:35:05.479Z,17.23
2024-03-11T08:37:32.535Z,16.25
2024-03-11T08:39:58.954Z,18.67
2024-03-11T08:42:25.434Z,18.05
2024-03-11T08:44:52.824Z,15.80
2024-03-11T08:47:19.883Z,16.67
2024-03-11T08:49:46.809Z,15.30
2024-03-11T08:52:14.594Z,16.08
2024-03-11T08:54:41.811Z,15.73
2024-03-11T08:57:11.478Z,16.40
2024-03-11T08:59:38.214Z,16.27
2024-03-11T09:02:08.307Z,16.63
2024-03-11T09:04:36.886Z,18.00
2024-03-11T09:07:06.566Z,17.27
2024-03-11T09:09:33.631Z,16.08
2024-03-11T09:12:01.999Z,17.00
2024-03-11T09:14:32.483Z,17.33
2024-03-11T09:17:01.226Z,16.58
2024-03-11T09:19:29.197Z,17.10
2024-03-11T09:21:56.208Z,17.15
2024-03-11T09:24:23.222Z,17.35
2024-03-11T09:26:53.098Z,17.10
2024-03-11T09:29:20.772Z,16.63
2024-03-11T09:31:47.822Z,17.25
2024-03-11T09:34:20.676Z,16.73
2024-03-11T09:36:47.379Z,18.70
2024-03-11T09:39:20.047Z,18.23
2024-03-11T09:41:50.926Z,20.17
2024-03-11T09:44:21.838Z,18.52
2024-03-11T09:46:51.083Z,18.58
2024-03-11T09:49:20.350Z,18.35
2024-03-11T09:51:48.932Z,17.80
2024-03-11T09:54:18.876Z,18.23
2024-03-11T09:56:46.738Z,19.00
2024-03-11T09:59:19.373Z,17.83
2024-03-11T10:01:55.504Z,19.85
2024-03-11T10:04:27.569Z,17.95
2024-03-11T10:07:05.869Z,18.20
2024-03-11T10:09:32.675Z,18.38
2024-03-11T10:12:10.340Z,18.17
2024-03-11T10:14:40.429Z,18.35
2024-03-11T10:17:27.878Z,18.55
2024-03-11T10:19:57.183Z,17.38
2024-03-11T10:22:29.497Z,17.10
2024-03-11T10:24:59.298Z,18.50
2024-03-11T10:27:40.762Z,17.77
2024-03-11T10:30:24.778Z,17.30
2024-03-11T10:32:57.988Z,18.52
2024-03-11T10:35:27.797Z,17.48
2024-03-11T10:38:08.274Z,17.85
2024-03-11T10:40:34.687Z,16.58
2024-03-11T10:43:22.545Z,16.80
2024-03-11T10:45:49.081Z,16.80
2024-03-11T10:48:19.161Z,17.40
2024-03-11T10:50:45.799Z,17.37
2024-03-11T10:53:26.003Z,17.73
2024-03-11T10:55:59.714Z,17.92
2024-03-11T10:58:29.798Z,16.05
2024-03-11T11:01:01.878Z,16.95
2024-03-11T11:03:31.616Z,16.55
2024-03-11T11:06:01.613Z,15.15
2024-03-11T11:08:31.617Z,16.27
2024-03-11T11:10:59.453Z,17.58
2024-03-11T11:13:27.133Z,17.13
2024-03-11T11:15:55.749Z,16.75
2024-03-11T11:18:25.611Z,16.10
2024-03-11T11:20:53.533Z,16.73
2024-03-11T11:23:30.886Z,16.77
2024-03-11T11:25:58.701Z,15.73
2024-03-11T11:28:45.806Z,14.65
2024-03-11T11:31:26.814Z,15.75
2024-03-11T11:34:03.496Z,15.90
2024-03-11T11:36:33.381Z,14.98
2024-03-11T11:39:15.829Z,16.80
2024-03-11T11:41:45.021Z,17.45
2024-03-11T11:44:12.140Z,16.65
2024-03-11T11:46:47.768Z,15.45
2024-03-11T11:49:22.099Z,16.60
2024-03-11T11:51:52.549Z,16.83
2024-03-11T11:54:35.462Z,17.63
2024-03-11T11:57:12.596Z,16.67
2024-03-11T11:59:41.968Z,17.15
2024-03-11T12:02:22.121Z,16.25
2024-03-11T12:04:57.213Z,16.95
2024-03-11T12:07:26.253Z,16.63
2024-03-11T12:09:58.527Z,17.38
2024-03-11T12:12:34.762Z,16.65
2024-03-11T12:15:06.110Z,17.55
2024-03-11T12:17:33.940Z,16.48
2024-03-11T12:20:17.041Z,16.92
2024-03-11T12:22:43.777Z,17.05
2024-03-11T12:25:14.513Z,17.02
2024-03-11T12:27:45.557Z,17.92
2024-03-11T12:32:59.094Z,16.33
2024-03-11T12:35:28.966Z,18.00
2024-03-11T12:37:55.788Z,17.45
2024-03-11T12:40:22.263Z,19.48
2024-03-11T12:42:53.353Z,17.67
2024-03-11T12:45:42.371Z,16.27
2024-03-11T12:48:14.207Z,17.52
2024-03-11T12:50:42.336Z,18.00
2024-03-11T12:53:13.899Z,16.15
2024-03-11T12:55:41.933Z,16.02
2024-03-11T12:58:13.400Z,15.43
2024-03-11T13:00:42.748Z,16.85
2024-03-11T13:03:13.060Z,16.45
2024-03-11T13:05:56.297Z,17.08
2024-03-11T13:08:23.242Z,15.52
2024-03-11T13:10:49.667Z,17.30
2024-03-11T13:13:17.702Z,17.13
2024-03-11T13:15:44.665Z,16.50
2024-03-11T13:18:13.196Z,17.15
2024-03-11T13:20:39.695Z,17.10
2024-03-11T13:23:12.535Z,16.90
2024-03-11T13:25:41.126Z,16.33
2024-03-11T13:28:08.300Z,16.60
2024-03-11T13:30:42.053Z,16.77
2024-03-11T13:33:09.559Z,17.10
2024-03-11T13:35:36.042Z,17.17
2024-03-11T13:38:05.458Z,16.80
2024-03-11T13:40:31.951Z,16.88
2024-03-11T13:42:58.447Z,17.83
2024-03-11T13:45:25.309Z,16.60
2024-03-11T13:47:51.785Z,15.98
2024-03-11T13:50:20.839Z,17.40
2024-03-11T13:52:48.280Z,17.20
2024-03-11T13:55:16.222Z,17.42
2024-03-11T13:57:43.482Z,16.48
2024-03-11T14:00:20.854Z,16.33
2024-03-11T14:02:52.224Z,17.17
2024-03-11T14:05:20.029Z,16.25
2024-03-11T14:07:48.118Z,17.35
2024-03-11T14:10:14.688Z,17.60
2024-03-11T14:12:43.438Z,16.23
2024-03-11T14:15:11.697Z,16.92
2024-03-11T14:17:40.350Z,17.23
2024-03-11T14:20:17.622Z,15.32
2024-03-11T14:22:45.992Z,16.98
2024-03-11T14:25:14.526Z,15.77
2024-03-11T14:27:43.091Z,17.55
2024-03-11T14:30:15.399Z,16.88
2024-03-11T14:32:45.987Z,17.05
2024-03-11T14:35:17.899Z,17.60
2024-03-11T14:37:46.618Z,17.95
2024-03-11T14:40:30.468Z,17.35
2024-03-11T14:43:01.215Z,15.52
2024-03-11T14:45:33.784Z,15.50
2024-03-11T14:48:03.687Z,14.05
2024-03-11T14:50:30.952Z,15.73
2024-03-11T14:52:58.378Z,15.57
2024-03-11T14:55:33.349Z,15.98
2024-03-11T14:58:00.261Z,15.90
2024-03-11T15:00:27.574Z,15.68
2024-03-11T15:02:54.639Z,14.90
2024-03-11T15:05:22.173Z,15.05
2024-03-11T15:07:57.760Z,16.73
2024-03-11T15:10:33.692Z,13.95
2024-03-11T15:13:01.369Z,14.93
2024-03-11T15:15:32.617Z,14.82
2024-03-11T15:18:01.508Z,16.02
2024-03-11T15:20:29.127Z,13.57
2024-03-11T15:22:55.840Z,15.15
2024-03-11T15:25:28.248Z,12.73
2024-03-11T15:27:54.732Z,14.32
2024-03-11T15:30:27.953Z,14.77
2024-03-11T15:32:55.450Z,14.35
2024-03-11T15:35:22.302Z,15.57
2024-03-11T15:37:49.755Z,15.13
2024-03-11T15:40:16.749Z,14.82
2024-03-11T15:42:43.391Z,14.48
2024-03-11T15:45:11.852Z,15.85
2024-03-11T15:47:41.474Z,15.00
2024-03-11T15:50:20.274Z,14.02
2024-03-11T15:52:50.865Z,15.38
2024-03-11T15:55:23.737Z,14.98
2024-03-11T15:57:52.463Z,14.80
2024-03-11T16:00:19.436Z,14.73
2024-03-11T16:02:51.047Z,14.13
2024-03-11T16:05:18.569Z,15.38
2024-03-11T16:07:46.440Z,14.57
2024-03-11T16:10:16.927Z,14.48
2024-03-11T16:12:46.160Z,15.45
2024-03-11T16:15:20.389Z,16.30
2024-03-11T16:17:48.410Z,14.85
2024-03-11T16:20:20.704Z,16.02
2024-03-11T16:22:47.825Z,15.90
2024-03-11T16:25:17.119Z,17.27
2024-03-11T16:27:45.438Z,15.98
2024-03-11T16:30:16.198Z,15.82
2024-03-11T16:32:45.757Z,16.75
2024-03-11T16:35:13.618Z,16.60
2024-03-11T16:37:40.995Z,16.63
2024-03-11T16:40:15.439Z,15.50
2024-03-11T16:42:42.912Z,16.48
2024-03-11T16:45:09.811Z,16.67
2024-03-11T16:47:39.912Z,17.45
2024-03-11T16:50:12.998Z,16.27
2024-03-11T16:52:40.308Z,17.35
2024-03-11T16:55:09.690Z,19.95
2024-03-11T16:57:37.885Z,20.17
2024-03-11T17:00:11.480Z,19.10
2024-03-11T17:02:43.654Z,18.25
2024-03-11T17:05:14.155Z,19.08
2024-03-11T17:07:46.212Z,18.30
2024-03-11T17:10:14.329Z,17.73
2024-03-11T17:12:45.164Z,19.10
2024-03-11T17:15:17.992Z,17.98
2024-03-11T17:17:51.276Z,18.40
2024-03-11T17:20:22.172Z,18.75
2024-03-11T17:22:49.379Z,18.05
2024-03-11T17:25:16.196Z,17.13
2024-03-11T17:27:45.923Z,16.02
2024-03-11T17:30:14.331Z,16.83
2024-03-11T17:32:43.795Z,16.00
2024-03-11T17:35:13.405Z,16.20
2024-03-11T17:37:45.610Z,16.52
2024-03-11T17:40:13.518Z,15.23
2024-03-11T17:42:42.149Z,16.33
2024-03-11T17:45:15.483Z,15.93
2024-03-11T17:47:43.079Z,14.70
2024-03-11T17:50:20.277Z,16.42
2024-03-11T17:52:49.173Z,15.30
2024-03-11T17:55:27.304Z,15.18
2024-03-11T17:57:56.075Z,14.90
2024-03-11T18:00:29.082Z,16.50
2024-03-11T18:02:56.824Z,16.30
2024-03-11T18:05:30.117Z,17.27
2024-03-11T18:08:01.388Z,17.73
2024-03-11T18:10:35.141Z,18.23
2024-03-11T18:13:03.504Z,19.80
2024-03-11T18:15:30.823Z,17.38
2024-03-11T18:17:58.261Z,17.83
2024-03-11T18:20:30.376Z,18.65
2024-03-11T18:22:56.823Z,18.30
2024-03-11T18:25:25.471Z,21.90
2024-03-11T18:27:53.619Z,15.82
2024-03-11T18:30:22.341Z,16.55
2024-03-11T18:32:50.412Z,16.42
2024-03-11T18:35:19.162Z,15.75
2024-03-11T18:37:46.100Z,16.20
2024-03-11T18:40:15.653Z,14.95
2024-03-11T18:42:44.037Z,14.10
2024-03-11T18:45:11.262Z,13.63
2024-03-11T18:47:38.488Z,14.23
2024-03-11T18:50:09.624Z,13.20
2024-03-11T18:52:44.719Z,14.80
2024-03-11T18:55:23.043Z,12.82
2024-03-11T18:57:53.848Z,14.20
2024-03-11T19:00:23.892Z,14.32
2024-03-11T19:02:53.928Z,15.48
2024-03-11T19:05:20.859Z,13.10
2024-03-11T19:07:48.089Z,15.43
2024-03-11T19:10:17.988Z,15.05
2024-03-11T19:12:47.832Z,14.55
2024-03-11T19:15:15.765Z,13.18
2024-03-11T19:17:46.688Z,16.23
2024-03-11T19:20:14.611Z,16.23
2024-03-11T19:22:44.958Z,14.50
2024-03-11T19:25:13.380Z,17.70
2024-03-11T19:27:40.319Z,16.05
2024-03-11T19:30:11.764Z,14.80
2024-03-11T19:32:39.158Z,14.52
2024-03-11T19:35:15.439Z,15.75
2024-03-11T19:38:06.596Z,13.63
2024-03-11T19:40:42.655Z,13.90
2024-03-11T19:43:29.077Z,15.52
2024-03-11T19:46:24.843Z,15.00
2024-03-11T19:49:10.039Z,14.10
2024-03-11T19:52:06.846Z,15.32
2024-03-11T19:55:11.640Z,15.65
2024-03-11T19:58:16.741Z,16.52
2024-03-11T20:01:09.652Z,16.63
2024-03-11T20:03:59.406Z,15.57
2024-03-11T20:06:54.024Z,16.27
2024-03-11T20:09:36.670Z,17.30
2024-03-11T20:12:54.467Z,16.23
2024-03-11T20:15:46.208Z,16.00
2024-03-11T20:18:33.911Z,16.05
2024-03-11T20:21:30.511Z,15.93
2024-03-11T20:24:19.335Z,16.77
2024-03-11T20:27:19.124Z,17.75
2024-03-11T20:30:00.247Z,16.52
2024-03-11T20:34:55.258Z,15.25
2024-03-11T20:37:21.998Z,15.07
2024-03-11T20:39:48.481Z,15.55
2024-03-11T20:42:15.407Z,16.30
2024-03-11T20:44:42.360Z,15.50
2024-03-11T20:47:10.031Z,15.80
2024-03-11T20:49:36.912Z,15.27
2024-03-11T20:52:03.672Z,15.23
2024-03-11T20:54:32.592Z,16.77
2024-03-11T20:57:00.625Z,15.88
2024-03-11T20:59:27.404Z,17.55
2024-03-11T21:01:54.093Z,16.58
2024-03-11T21:04:20.616Z,16.77
2024-03-11T21:06:47.963Z,15.82
2024-03-11T21:09:14.661Z,16.45
2024-03-11T21:11:42.315Z,16.27
2024-03-11T21:14:09.872Z,16.73
2024-03-11T21:16:36.279Z,16.63
2024-03-11T21:19:23.793Z,17.05
2024-03-11T21:22:16.836Z,18.08
2024-03-11T21:24:54.590Z,15.90
2024-03-11T21:27:48.100Z,16.75
2024-03-11T21:30:17.705Z,16.83
2024-03-11T21:32:45.065Z,17.90
2024-03-11T21:35:13.034Z,17.30
2024-03-11T21:37:40.879Z,18.58
2024-03-11T21:40:12.334Z,19.65
2024-03-11T21:42:46.892Z,17.80
2024-03-11T21:45:13.652Z,18.75
2024-03-11T21:47:41.195Z,19.45
2024-03-11T21:50:13.684Z,18.52
2024-03-11T21:52:40.763Z,19.92
2024-03-11T21:55:10.300Z,19.58
2024-03-11T21:57:36.872Z,18.77
2024-03-11T22:00:04.559Z,20.27
2024-03-11T22:02:30.989Z,19.60
2024-03-11T22:04:58.287Z,18.48
2024-03-11T22:07:28.699Z,20.58
2024-03-11T22:09:55.269Z,20.13
2024-03-11T22:12:22.385Z,19.83
2024-03-11T22:14:49.108Z,20.50
2024-03-11T22:17:17.594Z,19.23
2024-03-11T22:19:44.957Z,19.85
2024-03-11T22:22:12.495Z,19.17
2024-03-11T22:24:39.921Z,19.40
2024-03-11T22:27:06.837Z,21.75
2024-03-11T22:29:34.053Z,20.35
2024-03-11T22:32:00.507Z,20.48
2024-03-11T22:34:27.145Z,18.60
2024-03-11T22:36:53.869Z,19.95
2024-03-11T22:39:21.829Z,20.25
2024-03-11T22:41:48.814Z,19.90
2024-03-11T22:44:16.308Z,21.00
2024-03-11T22:46:43.809Z,13.50
2024-03-11T22:49:14.098Z,22.00
2024-03-11T22:51:43.996Z,21.08
2024-03-11T22:54:10.977Z,19.30
2024-03-11T22:56:37.648Z,20.23
2024-03-11T22:59:05.374Z,21.88
2024-03-11T23:01:34.254Z,21.10
2024-03-11T23:04:00.856Z,19.77
2024-03-11T23:06:29.174Z,21.02
2024-03-11T23:08:57.485Z,19.60
2024-03-11T23:11:27.385Z,20.85
2024-03-11T23:13:54.106Z,19.17
2024-03-11T23:16:21.409Z,19.83
2024-03-11T23:18:50.848Z,22.02
2024-03-11T23:21:18.559Z,20.42
2024-03-11T23:23:46.834Z,19.83
2024-03-11T23:26:19.885Z,21.42
2024-03-11T23:28:46.720Z,19.17
2024-03-11T23:31:14.707Z,22.38
2024-03-11T23:33:41.354Z,19.63
2024-03-11T23:36:10.456Z,20.48
2024-03-11T23:38:45.744Z,20.55
2024-03-11T23:41:13.800Z,21.42
2024-03-11T23:43:41.949Z,21.63
2024-03-11T23:46:08.529Z,22.05
2024-03-11T23:48:35.088Z,21.30
2024-03-11T23:51:01.885Z,22.08
2024-03-11T23:53:28.420Z,22.27
2024-03-11T23:56:01.969Z,23.23
2024-03-11T23:58:33.093Z,19.92
